Time;durP1;ratioP1;P1;durP2;ratioP2;P2;SDS_P1;SDS_P2;PMS_P1;PMS_P2;Temp;Humidity;BMP_temperature;BMP_pressure;BME280_temperature;BME280_humidity;BME280_pressure;Samples;Min_cycle;Max_cycle;Signal;HPM_P1;HPM_P2
2021/12/13 00:00:24;;;;;;;;;;;;;;;-2.93;76.38;98908.22;1629968;85;26094;-87
2021/12/13 00:03:00;;;;;;;;;;;;;;;-2.98;76.35;98914.23;1636433;87;20290;-87
2021/12/13 00:05:28;;;;;;;;;;;;;;;-3.07;76.34;98910.48;1629787;86;20612;-86
2021/12/13 00:07:58;;;;;;;;;;;;;;;-3.14;76.33;98908.81;1626655;87;25060;-86
2021/12/13 00:10:26;;;;;;;;;;;;;;;-3.19;76.27;98909.72;1626190;87;22033;-88
2021/12/13 00:13:00;;;;;;;;;;;;;;;-3.26;76.25;98901.23;1632519;85;26072;-87
2021/12/13 00:15:30;;;;;;;;;;;;;;;-3.35;76.19;98892.34;1621482;87;25279;-87
2021/12/13 00:17:56;;;;;;;;;;;;;;;-3.44;76.14;98908.59;1637972;87;20482;-87
2021/12/13 00:20:36;;;;;;;;;;;;;;;-3.49;76.11;98906.95;1641093;87;24963;-87
2021/12/13 00:23:00;;;;;;;;;;;;;;;-3.53;76.08;98904.83;1621777;87;22032;-87
2021/12/13 00:25:28;;;;;;;;;;;;;;;-3.56;76.07;98906.14;1629898;87;26792;-87
2021/12/13 00:27:58;;;;;;;;;;;;;;;-3.61;76.06;98909.16;1626094;87;24277;-87
2021/12/13 00:30:35;;;;;;;;;;;;;;;-3.66;76.05;98913.88;1622880;87;20246;-87
2021/12/13 00:33:20;;;;;;;;;;;;;;;-3.73;76.03;98913.05;1620163;87;25976;-87
2021/12/13 00:35:51;;;;;;;;;;;;;;;-3.80;76.01;98918.62;1617892;87;22023;-87
2021/12/13 00:38:19;;;;;;;;;;;;;;;-3.78;76.03;98918.63;1593865;89;26138;-87
2021/12/13 00:40:57;;;;;;;;;;;;;;;-3.76;76.05;98916.06;1569911;89;24647;-87
2021/12/13 00:43:36;;;;;;;;;;;;;;;-3.73;76.08;98921.16;1627636;87;20253;-87
2021/12/13 00:46:08;;;;;;;;;;;;;;;-3.58;76.16;98924.47;1621429;87;25093;-87
2021/12/13 00:48:34;;;;;;;;;;;;;;;-3.42;76.26;98922.23;1603267;89;22037;-88
2021/12/13 00:51:02;;;;;;;;;;;;;;;-3.26;76.41;98925.97;1625050;87;26228;-88
2021/12/13 00:53:30;;;;;;;;;;;;;;;-3.29;76.49;98924.30;1623180;86;25155;-87
2021/12/13 00:56:01;;;;;;;;;;;;;;;-3.36;76.52;98926.47;1616579;87;20543;-87
2021/12/13 00:58:25;;;;;;;;;;;;;;;-3.43;76.53;98926.93;1617664;86;25074;-86
2021/12/13 01:00:59;;;;;;;;;;;;;;;-3.49;76.52;98922.30;1615681;87;21985;-88
2021/12/13 01:03:36;;;;;;;;;;;;;;;-3.54;76.53;98924.86;1619684;87;26829;-87
2021/12/13 01:06:20;;;;;;;;;;;;;;;-3.49;76.55;98917.19;1629522;87;24495;-88
2021/12/13 01:08:51;;;;;;;;;;;;;;;-3.42;76.59;98907.31;1641770;86;20382;-87
2021/12/13 01:11:22;;;;;;;;;;;;;;;-3.21;76.69;98915.27;1625293;87;24984;-87
2021/12/13 01:13:55;;;;;;;;;;;;;;;-2.97;76.80;98918.50;1612569;87;21980;-87
2021/12/13 01:19:49;;;;;;;;;;;;;;;-2.64;77.07;98910.09;1625608;87;25355;-87
2021/12/13 01:21:38;;;;;;;;;;;;;;;-2.55;77.15;98913.84;1656825;85;20860;-86
2021/12/13 01:24:06;;;;;;;;;;;;;;;-2.60;77.16;98912.61;1621710;87;25000;-88
2021/12/13 01:26:38;;;;;;;;;;;;;;;-2.78;77.15;98915.33;1627908;86;22107;-86
2021/12/13 01:29:08;;;;;;;;;;;;;;;-2.97;77.06;98919.78;1620767;87;26133;-86
2021/12/13 01:31:38;;;;;;;;;;;;;;;-3.08;77.00;98916.45;1606848;87;20451;-87
2021/12/13 01:34:05;;;;;;;;;;;;;;;-3.21;76.88;98918.67;1631421;87;20686;-87
2021/12/13 01:36:37;;;;;;;;;;;;;;;-3.30;76.81;98906.38;1626207;87;25114;-86
2021/12/13 01:39:02;;;;;;;;;;;;;;;-3.17;76.78;98913.13;1634514;87;22116;-86
2021/12/13 01:41:37;;;;;;;;;;;;;;;-2.97;76.83;98906.98;1638602;86;27266;-88
2021/12/13 01:44:12;;;;;;;;;;;;;;;-2.86;76.88;98907.31;1596159;88;25155;-87
2021/12/13 01:46:54;;;;;;;;;;;;;;;-2.93;76.86;98912.06;1625443;87;20302;-87
2021/12/13 01:49:19;;;;;;;;;;;;;;;-3.06;76.84;98916.02;1635627;87;24991;-87
2021/12/13 01:51:46;;;;;;;;;;;;;;;-3.15;76.77;98911.38;1631793;87;22094;-87
2021/12/13 01:54:14;;;;;;;;;;;;;;;-3.06;76.78;98910.05;1627319;87;25983;-87
2021/12/13 01:56:54;;;;;;;;;;;;;;;-3.08;76.76;98910.48;1635468;86;24626;-86
2021/12/13 01:59:43;;;;;;;;;;;;;;;-3.22;76.71;98912.31;1627320;87;20254;-88
2021/12/13 02:01:59;;;;;;;;;;;;;;;-3.39;76.63;98906.88;1636396;86;24892;-86
2021/12/13 02:04:25;;;;;;;;;;;;;;;-3.53;76.52;98903.97;1634914;87;21987;-86
2021/12/13 02:06:54;;;;;;;;;;;;;;;-3.65;76.42;98904.04;1626858;87;26102;-87
2021/12/13 02:09:25;;;;;;;;;;;;;;;-3.71;76.33;98902.40;1637250;86;25211;-88
2021/12/13 02:12:00;;;;;;;;;;;;;;;-3.79;76.28;98892.62;1634968;86;20243;-88
2021/12/13 02:14:29;;;;;;;;;;;;;;;-3.90;76.20;98893.96;1632801;87;25002;-87
2021/12/13 02:17:10;;;;;;;;;;;;;;;-3.99;76.15;98897.85;1636796;87;21459;-87
2021/12/13 02:19:42;;;;;;;;;;;;;;;-3.95;76.14;98894.42;1636128;87;26059;-88
2021/12/13 02:22:29;;;;;;;;;;;;;;;-3.77;76.18;98901.58;1635476;87;24441;-88
2021/12/13 02:24:57;;;;;;;;;;;;;;;-3.65;76.24;98902.77;1635849;87;21144;-88
2021/12/13 02:27:25;;;;;;;;;;;;;;;-3.63;76.28;98906.17;1654881;86;25044;-88
2021/12/13 02:29:53;;;;;;;;;;;;;;;-3.73;76.27;98896.86;1640981;87;21999;-88
2021/12/13 02:32:28;;;;;;;;;;;;;;;-3.64;76.31;98889.98;1661044;85;26864;-88
2021/12/13 02:34:56;;;;;;;;;;;;;;;-3.45;76.38;98892.00;1634816;87;24600;-89
2021/12/13 02:37:23;;;;;;;;;;;;;;;-3.49;76.40;98880.09;1634909;87;20386;-89
2021/12/13 02:39:56;;;;;;;;;;;;;;;-3.59;76.40;98879.28;1628907;87;25038;-88
2021/12/13 02:42:19;;;;;;;;;;;;;;;-3.68;76.40;98884.47;1636117;86;22867;-88
2021/12/13 02:44:47;;;;;;;;;;;;;;;-3.56;76.43;98886.11;1630366;87;26959;-89
2021/12/13 02:47:30;;;;;;;;;;;;;;;-3.39;76.49;98884.28;1629538;86;24646;-88
2021/12/13 02:50:03;;;;;;;;;;;;;;;-3.40;76.51;98897.50;1612068;87;20216;-88
2021/12/13 02:52:29;;;;;;;;;;;;;;;-3.49;76.52;98900.10;1637017;86;25187;-88
2021/12/13 02:55:00;;;;;;;;;;;;;;;-3.42;76.54;98898.36;1635821;87;21961;-88
2021/12/13 02:57:28;;;;;;;;;;;;;;;-3.39;76.55;98894.09;1637745;86;26740;-88
2021/12/13 02:59:56;;;;;;;;;;;;;;;-3.27;76.55;98893.59;1635512;86;26195;-88
2021/12/13 03:02:24;;;;;;;;;;;;;;;-3.21;76.53;98890.95;1633152;87;20217;-87
2021/12/13 03:04:51;;;;;;;;;;;;;;;-3.32;76.50;98890.18;1637288;86;25092;-87
2021/12/13 03:07:19;;;;;;;;;;;;;;;-3.52;76.43;98900.13;1637727;87;22076;-88
2021/12/13 03:09:55;;;;;;;;;;;;;;;-3.68;76.37;98897.68;1636935;87;26770;-88
2021/12/13 03:12:22;;;;;;;;;;;;;;;-3.79;76.32;98890.07;1625335;87;24816;-87
2021/12/13 03:14:51;;;;;;;;;;;;;;;-3.69;76.32;98896.83;1625784;86;20338;-87
2021/12/13 03:17:19;;;;;;;;;;;;;;;-3.61;76.33;98887.41;1631191;87;25303;-87
2021/12/13 03:20:09;;;;;;;;;;;;;;;-3.56;76.32;98888.66;1631507;86;21958;-87
2021/12/13 03:22:37;;;;;;;;;;;;;;;-3.63;76.29;98893.39;1637834;87;26130;-87
2021/12/13 03:25:15;;;;;;;;;;;;;;;-3.73;76.22;98893.88;1635450;87;25869;-86
2021/12/13 03:27:43;;;;;;;;;;;;;;;-3.81;76.14;98898.17;1600180;88;20408;-88
2021/12/13 03:30:13;;;;;;;;;;;;;;;-3.82;76.08;98896.03;1634240;87;25772;-88
2021/12/13 03:32:45;;;;;;;;;;;;;;;-3.76;76.05;98895.61;1634948;87;22770;-88
2021/12/13 03:35:16;;;;;;;;;;;;;;;-3.74;76.04;98897.71;1636917;87;26287;-88
2021/12/13 03:37:42;;;;;;;;;;;;;;;-3.64;76.08;98896.80;1659795;85;24365;-89
2021/12/13 03:40:13;;;;;;;;;;;;;;;-3.61;76.09;98900.62;1630039;87;20223;-88
2021/12/13 03:42:41;;;;;;;;;;;;;;;-3.76;76.10;98897.71;1636841;86;25716;-88
2021/12/13 03:45:13;;;;;;;;;;;;;;;-3.81;76.11;98899.02;1637929;86;22099;-88
2021/12/13 03:47:39;;;;;;;;;;;;;;;-3.69;76.18;98897.25;1636072;86;26044;-87
2021/12/13 03:50:10;;;;;;;;;;;;;;;-3.62;76.24;98898.50;1630516;87;25276;-87
2021/12/13 03:52:40;;;;;;;;;;;;;;;-3.52;76.31;98891.61;1658520;85;20295;-87
2021/12/13 03:55:13;;;;;;;;;;;;;;;-3.56;76.35;98897.61;1633689;87;25164;-87
2021/12/13 03:57:41;;;;;;;;;;;;;;;-3.62;76.34;98896.37;1634894;87;22027;-87
2021/12/13 04:00:15;;;;;;;;;;;;;;;-3.64;76.35;98898.92;1635720;86;26122;-88
2021/12/13 04:02:41;;;;;;;;;;;;;;;-3.70;76.31;98898.11;1635552;87;25124;-88
2021/12/13 04:05:09;;;;;;;;;;;;;;;-3.68;76.28;98903.64;1627533;87;20233;-87
2021/12/13 04:07:37;;;;;;;;;;;;;;;-3.82;76.21;98903.70;1626748;87;25023;-88
2021/12/13 04:10:08;;;;;;;;;;;;;;;-3.94;76.17;98915.30;1636438;87;22077;-88
2021/12/13 04:12:42;;;;;;;;;;;;;;;-4.00;76.14;98911.91;1634724;86;27933;-88
2021/12/13 04:15:12;;;;;;;;;;;;;;;-4.03;76.12;98914.03;1656483;85;24599;-88
2021/12/13 04:17:58;;;;;;;;;;;;;;;-4.03;76.12;98926.81;1615124;87;20253;-88
2021/12/13 04:20:15;;;;;;;;;;;;;;;-4.01;76.15;98920.00;1638989;86;25823;-88
2021/12/13 04:22:44;;;;;;;;;;;;;;;-3.93;76.16;98925.09;1629584;87;23375;-88
2021/12/13 04:25:12;;;;;;;;;;;;;;;-3.98;76.19;98917.42;1630967;86;26270;-88
2021/12/13 04:27:49;;;;;;;;;;;;;;;-4.08;76.18;98915.77;1626917;86;24415;-88
2021/12/13 04:30:20;;;;;;;;;;;;;;;-4.15;76.15;98920.49;1625230;87;20254;-87
2021/12/13 04:32:48;;;;;;;;;;;;;;;-4.00;76.17;98919.16;1620207;87;25131;-87
2021/12/13 04:35:15;;;;;;;;;;;;;;;-3.96;76.19;98919.55;1627237;87;22067;-87
2021/12/13 04:37:43;;;;;;;;;;;;;;;-3.78;76.26;98930.55;1618368;87;26144;-87
2021/12/13 04:40:11;;;;;;;;;;;;;;;-3.57;76.35;98928.73;1615487;87;23898;-87
2021/12/13 04:42:43;;;;;;;;;;;;;;;-3.48;76.41;98930.38;1601943;88;20174;-88
2021/12/13 04:45:10;;;;;;;;;;;;;;;-3.38;76.47;98928.17;1632149;87;24975;-89
2021/12/13 04:47:50;;;;;;;;;;;;;;;-3.29;76.51;98929.84;1637104;86;22714;-88
2021/12/13 04:50:18;;;;;;;;;;;;;;;-3.21;76.59;98928.91;1637983;86;26295;-89
2021/12/13 04:52:45;;;;;;;;;;;;;;;-3.13;76.64;98925.87;1637957;87;24625;-89
2021/12/13 04:55:12;;;;;;;;;;;;;;;-3.14;76.68;98928.02;1636521;87;20253;-88
2021/12/13 04:57:41;;;;;;;;;;;;;;;-3.17;76.73;98922.08;1618052;87;20913;-87
2021/12/13 05:00:15;;;;;;;;;;;;;;;-3.20;76.76;98919.53;1614584;87;22145;-87
2021/12/13 05:02:45;;;;;;;;;;;;;;;-3.24;76.81;98922.98;1621831;87;25754;-87
2021/12/13 05:05:13;;;;;;;;;;;;;;;-3.25;76.86;98924.69;1620342;87;24367;-87
2021/12/13 05:07:52;;;;;;;;;;;;;;;-3.20;76.92;98926.78;1615762;87;20236;-87
2021/12/13 05:10:25;;;;;;;;;;;;;;;-3.23;76.94;98919.14;1654352;85;21905;-87
2021/12/13 05:13:00;;;;;;;;;;;;;;;-3.27;76.99;98916.16;1637541;86;21980;-87
2021/12/13 05:15:26;;;;;;;;;;;;;;;-3.27;77.01;98914.88;1638584;87;25990;-86
2021/12/13 05:17:53;;;;;;;;;;;;;;;-3.25;77.05;98919.56;1638190;87;24459;-87
2021/12/13 05:20:24;;;;;;;;;;;;;;;-3.28;77.08;98926.00;1630693;87;20273;-87
2021/12/13 05:22:52;;;;;;;;;;;;;;;-3.31;77.11;98936.23;1625045;87;25017;-87
2021/12/13 05:25:23;;;;;;;;;;;;;;;-3.34;77.12;98945.23;1629973;87;22159;-87
2021/12/13 05:27:50;;;;;;;;;;;;;;;-3.34;77.14;98943.95;1627799;86;26158;-87
2021/12/13 05:30:19;;;;;;;;;;;;;;;-3.35;77.18;98950.34;1639110;86;24642;-88
2021/12/13 05:32:50;;;;;;;;;;;;;;;-3.38;77.21;98947.36;1637587;87;20539;-88
2021/12/13 05:35:17;;;;;;;;;;;;;;;-3.35;77.25;98949.92;1631854;87;25091;-88
2021/12/13 05:37:51;;;;;;;;;;;;;;;-3.26;77.32;98956.67;1630726;87;22103;-87
2021/12/13 05:40:19;;;;;;;;;;;;;;;-3.21;77.38;98956.21;1638746;87;26213;-88
2021/12/13 05:42:47;;;;;;;;;;;;;;;-3.05;77.49;98957.80;1636694;86;25135;-89
2021/12/13 05:45:18;;;;;;;;;;;;;;;-2.99;77.62;98956.05;1639583;86;20225;-89
2021/12/13 05:47:55;;;;;;;;;;;;;;;-2.98;77.69;98954.34;1637758;86;25153;-88
2021/12/13 05:50:29;;;;;;;;;;;;;;;-3.02;77.72;98962.49;1635243;87;22061;-88
2021/12/13 05:53:06;;;;;;;;;;;;;;;-3.01;77.78;98960.36;1636070;86;25975;-87
2021/12/13 05:55:34;;;;;;;;;;;;;;;-2.92;77.85;98961.98;1607253;87;24251;-89
2021/12/13 05:58:00;;;;;;;;;;;;;;;-2.79;77.95;98962.31;1642333;85;20332;-88
2021/12/13 06:00:37;;;;;;;;;;;;;;;-2.68;78.07;98965.64;1634568;87;24969;-88
2021/12/13 06:03:17;;;;;;;;;;;;;;;-2.53;78.20;98963.36;1635046;86;22082;-88
2021/12/13 06:05:44;;;;;;;;;;;;;;;-2.45;78.30;98964.55;1634165;86;26052;-88
2021/12/13 06:08:12;;;;;;;;;;;;;;;-2.31;78.41;98964.86;1631898;87;24506;-88
2021/12/13 06:10:43;;;;;;;;;;;;;;;-2.25;78.49;98963.52;1638667;86;20264;-88
2021/12/13 06:13:11;;;;;;;;;;;;;;;-2.26;78.54;98968.22;1635691;86;25101;-88
2021/12/13 06:15:42;;;;;;;;;;;;;;;-2.30;78.55;98972.97;1629186;86;22015;-86
2021/12/13 06:18:10;;;;;;;;;;;;;;;-2.28;78.60;98967.38;1632690;87;26729;-86
2021/12/13 06:20:40;;;;;;;;;;;;;;;-2.25;78.66;98972.48;1625563;87;24505;-87
2021/12/13 06:23:08;;;;;;;;;;;;;;;-2.15;78.74;98970.24;1634977;86;20560;-87
2021/12/13 06:25:35;;;;;;;;;;;;;;;-2.06;78.80;98974.84;1630724;86;25603;-87
2021/12/13 06:28:02;;;;;;;;;;;;;;;-2.12;78.81;98974.05;1634828;87;22090;-88
2021/12/13 06:30:38;;;;;;;;;;;;;;;-2.02;78.87;98981.66;1649767;86;26245;-87
2021/12/13 06:33:07;;;;;;;;;;;;;;;-1.89;78.93;98982.77;1615796;87;24509;-87
2021/12/13 06:35:43;;;;;;;;;;;;;;;-1.77;78.96;98979.22;1659492;85;20257;-88
2021/12/13 06:38:29;;;;;;;;;;;;;;;-1.69;79.00;98982.09;1630557;86;25131;-87
2021/12/13 06:41:03;;;;;;;;;;;;;;;-1.58;79.04;98979.85;1635029;86;22000;-87
2021/12/13 06:43:34;;;;;;;;;;;;;;;-1.50;79.09;98981.44;1631492;87;25975;-87
2021/12/13 06:46:02;;;;;;;;;;;;;;;-1.48;79.14;98980.14;1637531;87;24558;-88
2021/12/13 06:48:32;;;;;;;;;;;;;;;-1.47;79.17;98983.10;1631045;87;20278;-87
2021/12/13 06:51:00;;;;;;;;;;;;;;;-1.46;79.19;98984.38;1628169;85;25053;-87
2021/12/13 06:53:28;;;;;;;;;;;;;;;-1.42;79.23;98986.02;1628148;86;22102;-86
2021/12/13 06:55:54;;;;;;;;;;;;;;;-1.40;79.24;98986.86;1637404;87;28054;-86
2021/12/13 06:58:22;;;;;;;;;;;;;;;-1.36;79.26;98987.66;1636683;86;24614;-87
2021/12/13 07:00:50;;;;;;;;;;;;;;;-1.29;79.27;98986.72;1631174;87;20282;-87
2021/12/13 07:03:20;;;;;;;;;;;;;;;-1.38;79.25;98983.85;1635805;86;22764;-87
2021/12/13 07:05:54;;;;;;;;;;;;;;;-1.41;79.29;98983.88;1630450;86;22116;-88
2021/12/13 07:08:34;;;;;;;;;;;;;;;-1.30;79.35;98988.43;1639095;87;27051;-87
2021/12/13 07:11:05;;;;;;;;;;;;;;;-1.30;79.37;98991.00;1633796;86;24520;-87
2021/12/13 07:13:33;;;;;;;;;;;;;;;-1.28;79.42;98985.42;1631329;86;20257;-86
2021/12/13 07:16:14;;;;;;;;;;;;;;;-1.21;79.46;98987.47;1636648;86;25904;-87
2021/12/13 07:18:53;;;;;;;;;;;;;;;-1.23;79.46;98993.05;1622209;87;22271;-88
2021/12/13 07:21:23;;;;;;;;;;;;;;;-1.19;79.52;98997.70;1629947;87;26128;-87
2021/12/13 07:23:54;;;;;;;;;;;;;;;-1.12;79.57;98999.32;1612719;87;24320;-87
2021/12/13 07:26:36;;;;;;;;;;;;;;;-1.01;79.64;98996.17;1619993;87;20750;-88
2021/12/13 07:29:04;;;;;;;;;;;;;;;-1.02;79.68;98991.89;1628280;87;25112;-87
2021/12/13 07:31:31;;;;;;;;;;;;;;;-1.00;79.71;99010.71;1630295;87;22027;-88
2021/12/13 07:33:59;;;;;;;;;;;;;;;-1.06;79.68;99006.94;1631618;87;26238;-87
2021/12/13 07:36:27;;;;;;;;;;;;;;;-1.07;79.69;99018.08;1640346;86;24425;-87
2021/12/13 07:38:56;;;;;;;;;;;;;;;-1.00;79.73;99013.28;1629403;87;20212;-88
2021/12/13 07:41:26;;;;;;;;;;;;;;;-0.93;79.78;99022.61;1653108;86;21778;-86
2021/12/13 07:43:52;;;;;;;;;;;;;;;-0.90;79.84;99025.11;1632242;86;21968;-87
2021/12/13 07:46:21;;;;;;;;;;;;;;;-0.91;79.86;99028.12;1655646;85;22875;-85
2021/12/13 07:48:49;;;;;;;;;;;;;;;-0.90;79.90;99032.39;1631835;87;24590;-88
2021/12/13 07:51:18;;;;;;;;;;;;;;;-0.91;79.91;99027.27;1634166;87;20165;-88
2021/12/13 07:53:49;;;;;;;;;;;;;;;-0.91;79.95;99031.12;1635500;86;25007;-87
2021/12/13 07:56:23;;;;;;;;;;;;;;;-0.83;79.97;99026.73;1632789;87;21987;-88
2021/12/13 07:58:51;;;;;;;;;;;;;;;-0.75;80.02;99035.59;1635335;87;26227;-87
2021/12/13 08:01:18;;;;;;;;;;;;;;;-0.73;80.09;99039.00;1628586;87;24464;-87
2021/12/13 08:03:46;;;;;;;;;;;;;;;-0.78;80.16;99048.50;1633359;86;20253;-88
2021/12/13 08:06:12;;;;;;;;;;;;;;;-0.76;80.25;99045.02;1630553;86;25582;-86
2021/12/13 08:08:40;;;;;;;;;;;;;;;-0.78;80.31;99055.77;1639762;86;22111;-87
2021/12/13 08:11:06;;;;;;;;;;;;;;;-0.85;80.34;99059.30;1636991;87;25941;-88
2021/12/13 08:13:35;;;;;;;;;;;;;;;-0.95;80.38;99061.15;1632649;87;24472;-88
2021/12/13 08:16:03;;;;;;;;;;;;;;;-0.99;80.38;99070.20;1626048;87;20499;-89
2021/12/13 08:18:31;;;;;;;;;;;;;;;-0.91;80.46;99068.37;1629116;86;24971;-88
2021/12/13 08:21:00;;;;;;;;;;;;;;;-0.72;80.59;99072.83;1633088;86;22483;-87
2021/12/13 08:23:28;;;;;;;;;;;;;;;-0.49;80.77;99074.59;1629398;87;26106;-87
2021/12/13 08:25:56;;;;;;;;;;;;;;;-0.24;80.96;99076.36;1635353;87;25159;-87
2021/12/13 08:28:24;;;;;;;;;;;;;;;-0.05;81.14;99072.59;1629934;87;20248;-87
2021/12/13 08:30:55;;;;;;;;;;;;;;;0.03;81.26;99081.03;1615508;88;25128;-87
2021/12/13 08:33:35;;;;;;;;;;;;;;;0.14;81.42;99082.13;1618196;87;22088;-88
2021/12/13 08:36:03;;;;;;;;;;;;;;;0.23;81.52;99078.09;1620584;87;26680;-87
2021/12/13 08:38:31;;;;;;;;;;;;;;;0.34;81.61;99081.33;1618475;87;24534;-88
2021/12/13 08:40:58;;;;;;;;;;;;;;;0.37;81.65;99078.71;1624796;86;20268;-88
2021/12/13 08:43:38;;;;;;;;;;;;;;;0.44;81.69;99078.98;1633718;87;25087;-87
2021/12/13 08:46:05;;;;;;;;;;;;;;;0.51;81.71;99082.30;1638389;87;21975;-88
2021/12/13 08:48:33;;;;;;;;;;;;;;;0.61;81.76;99078.22;1638159;86;26137;-87
2021/12/13 08:51:00;;;;;;;;;;;;;;;0.72;81.80;99087.88;1632968;85;24462;-87
2021/12/13 08:53:29;;;;;;;;;;;;;;;0.77;81.81;99086.05;1626374;87;20169;-87
2021/12/13 08:56:00;;;;;;;;;;;;;;;0.80;81.84;99082.58;1629557;87;25061;-87
2021/12/13 08:58:26;;;;;;;;;;;;;;;0.88;81.89;99084.55;1637417;85;21995;-87
2021/12/13 09:01:06;;;;;;;;;;;;;;;1.00;81.93;99097.19;1635032;87;26667;-88
2021/12/13 09:03:34;;;;;;;;;;;;;;;1.14;81.93;99090.46;1634497;86;24444;-87
2021/12/13 09:06:20;;;;;;;;;;;;;;;1.29;81.93;99087.98;1634143;86;20400;-87
2021/12/13 09:08:48;;;;;;;;;;;;;;;1.41;81.94;99089.85;1636560;86;25018;-87
2021/12/13 09:11:16;;;;;;;;;;;;;;;1.54;81.95;99083.95;1625948;87;22730;-86
2021/12/13 09:13:48;;;;;;;;;;;;;;;1.63;81.94;99082.47;1635634;86;26050;-87
2021/12/13 09:16:18;;;;;;;;;;;;;;;1.69;81.94;99077.16;1636538;87;24523;-86
2021/12/13 09:18:43;;;;;;;;;;;;;;;1.76;81.91;99077.40;1626738;87;20246;-87
2021/12/13 09:21:09;;;;;;;;;;;;;;;1.82;81.88;99086.28;1638604;86;25069;-87
2021/12/13 09:23:37;;;;;;;;;;;;;;;1.86;81.84;99078.87;1629088;87;22100;-86
2021/12/13 09:26:14;;;;;;;;;;;;;;;1.80;81.74;99073.03;1636133;86;26133;-87
2021/12/13 09:28:45;;;;;;;;;;;;;;;1.85;81.70;99078.92;1635515;87;24585;-87
2021/12/13 09:31:13;;;;;;;;;;;;;;;1.85;81.62;99079.78;1638355;86;20232;-87
2021/12/13 09:33:41;;;;;;;;;;;;;;;1.88;81.52;99076.26;1630812;87;25058;-86
2021/12/13 09:36:11;;;;;;;;;;;;;;;1.93;81.46;99067.95;1626373;87;22695;-87
2021/12/13 09:38:39;;;;;;;;;;;;;;;1.96;81.36;99064.88;1636502;87;26072;-87
2021/12/13 09:41:07;;;;;;;;;;;;;;;1.91;81.29;99062.83;1612727;87;24553;-87
2021/12/13 09:43:41;;;;;;;;;;;;;;;1.89;81.20;99064.61;1630894;86;20459;-86
2021/12/13 09:46:08;;;;;;;;;;;;;;;1.87;81.10;99067.66;1630916;86;25814;-87
2021/12/13 09:48:36;;;;;;;;;;;;;;;1.87;81.00;99066.81;1625609;87;22041;-87
2021/12/13 09:51:06;;;;;;;;;;;;;;;1.92;80.93;99063.23;1631109;87;26740;-87
2021/12/13 09:53:34;;;;;;;;;;;;;;;1.99;80.88;99068.66;1634168;87;24550;-87
2021/12/13 09:56:02;;;;;;;;;;;;;;;2.05;80.84;99064.63;1639085;87;20257;-89
2021/12/13 09:58:40;;;;;;;;;;;;;;;2.11;80.79;99058.47;1634545;87;24961;-87
2021/12/13 10:01:08;;;;;;;;;;;;;;;2.17;80.78;99057.45;1637641;86;22066;-87
2021/12/13 10:03:43;;;;;;;;;;;;;;;2.21;80.76;99056.05;1633328;86;26089;-87
2021/12/13 10:06:10;;;;;;;;;;;;;;;2.25;80.74;99050.34;1630702;87;25142;-86
2021/12/13 10:08:50;;;;;;;;;;;;;;;2.28;80.69;99053.71;1626998;87;20531;-87
2021/12/13 10:11:18;;;;;;;;;;;;;;;2.32;80.63;99061.77;1639654;85;24451;-87
2021/12/13 10:13:50;;;;;;;;;;;;;;;2.32;80.55;99061.77;1643049;85;22092;-85
2021/12/13 10:16:21;;;;;;;;;;;;;;;2.38;80.51;99064.19;1630027;87;26017;-85
2021/12/13 10:18:49;;;;;;;;;;;;;;;2.44;80.46;99061.45;1633922;86;24518;-86
2021/12/13 10:21:17;;;;;;;;;;;;;;;2.43;80.40;99045.98;1634457;87;20228;-86
2021/12/13 10:23:45;;;;;;;;;;;;;;;2.62;80.41;99060.55;1630531;86;24937;-87
2021/12/13 10:26:13;;;;;;;;;;;;;;;2.68;80.37;99064.22;1624905;86;22671;-87
2021/12/13 10:28:41;;;;;;;;;;;;;;;2.68;80.32;99057.31;1627019;87;26689;-87
2021/12/13 10:31:12;;;;;;;;;;;;;;;2.71;80.26;99055.96;1636685;86;24514;-87
2021/12/13 10:33:38;;;;;;;;;;;;;;;2.80;80.17;99058.71;1635859;86;20677;-87
2021/12/13 10:36:06;;;;;;;;;;;;;;;2.87;80.14;99048.16;1635733;87;25064;-87
2021/12/13 10:38:34;;;;;;;;;;;;;;;2.95;80.11;99054.38;1624815;87;21864;-87
2021/12/13 10:41:05;;;;;;;;;;;;;;;2.98;80.06;99053.47;1621758;87;26116;-86
2021/12/13 10:43:36;;;;;;;;;;;;;;;3.02;80.03;99054.61;1627751;87;24463;-87
2021/12/13 10:46:04;;;;;;;;;;;;;;;3.01;79.95;99052.06;1618851;86;20210;-87
2021/12/13 10:48:32;;;;;;;;;;;;;;;3.04;79.84;99053.28;1624358;87;25115;-86
2021/12/13 10:51:02;;;;;;;;;;;;;;;3.04;79.77;99050.26;1621924;87;21975;-87
2021/12/13 10:53:28;;;;;;;;;;;;;;;3.05;79.67;99054.98;1612321;87;26030;-86
2021/12/13 10:56:01;;;;;;;;;;;;;;;3.09;79.61;99052.70;1624445;86;24538;-86
2021/12/13 10:58:29;;;;;;;;;;;;;;;3.12;79.56;99053.89;1630609;87;20228;-87
2021/12/13 11:00:57;;;;;;;;;;;;;;;3.13;79.48;99050.41;1623291;87;24994;-86
2021/12/13 11:03:29;;;;;;;;;;;;;;;3.12;79.41;99055.18;1624880;87;22098;-87
2021/12/13 11:05:53;;;;;;;;;;;;;;;3.15;79.31;99053.81;1624415;87;26082;-86
2021/12/13 11:08:20;;;;;;;;;;;;;;;3.18;79.24;99054.55;1633551;87;24460;-86
2021/12/13 11:10:50;;;;;;;;;;;;;;;3.20;79.15;99055.81;1621471;87;20173;-86
2021/12/13 11:13:16;;;;;;;;;;;;;;;3.26;79.13;99053.05;1599271;87;25648;-86
2021/12/13 11:15:44;;;;;;;;;;;;;;;3.26;79.09;99059.06;1625740;87;21985;-86
2021/12/13 11:18:12;;;;;;;;;;;;;;;3.23;79.08;99063.46;1623825;85;26070;-87
2021/12/13 11:20:40;;;;;;;;;;;;;;;3.21;79.06;99060.09;1624436;87;24566;-87
2021/12/13 11:23:07;;;;;;;;;;;;;;;3.20;79.01;99066.16;1587266;89;20342;-87
2021/12/13 11:25:35;;;;;;;;;;;;;;;3.17;78.98;99066.23;1587666;89;24670;-87
2021/12/13 11:28:01;;;;;;;;;;;;;;;3.19;78.97;99069.19;1573779;89;22115;-86
2021/12/13 11:30:29;;;;;;;;;;;;;;;3.28;78.95;99070.19;1634168;85;26554;-86
2021/12/13 11:32:58;;;;;;;;;;;;;;;3.32;78.90;99074.84;1658330;84;20181;-87
2021/12/13 11:35:29;;;;;;;;;;;;;;;3.29;78.86;99080.94;1636194;87;20254;-86
2021/12/13 11:38:06;;;;;;;;;;;;;;;3.29;78.81;99074.92;1637202;86;24833;-86
2021/12/13 11:40:34;;;;;;;;;;;;;;;3.26;78.78;99070.70;1655158;86;21885;-86
2021/12/13 11:43:18;;;;;;;;;;;;;;;3.32;78.74;99065.80;1640352;86;25986;-86
2021/12/13 11:46:05;;;;;;;;;;;;;;;3.29;78.71;99059.41;1635677;86;24479;-86
2021/12/13 11:48:42;;;;;;;;;;;;;;;3.28;78.66;99060.29;1617199;87;20221;-86
2021/12/13 11:51:29;;;;;;;;;;;;;;;;;;;;;
2021/12/13 11:54:13;;;;;;;;;;;;;;;3.26;78.59;99051.30;1623465;87;22063;-85
2021/12/13 11:56:44;;;;;;;;;;;;;;;3.23;78.52;99051.83;1638696;86;25999;-86
2021/12/13 11:59:28;;;;;;;;;;;;;;;3.22;78.47;99048.39;1634713;87;24507;-87
2021/12/13 12:02:03;;;;;;;;;;;;;;;3.24;78.42;99048.35;1636893;86;20294;-86
2021/12/13 12:04:47;;;;;;;;;;;;;;;3.29;78.39;99044.73;1627356;87;24997;-86
2021/12/13 12:07:15;;;;;;;;;;;;;;;3.39;78.38;99046.58;1634242;86;22722;-86
2021/12/13 12:10:00;;;;;;;;;;;;;;;3.46;78.38;99049.38;1631707;87;26031;-87
2021/12/13 12:12:31;;;;;;;;;;;;;;;3.48;78.40;99048.05;1636396;86;24552;-86
2021/12/13 12:15:01;;;;;;;;;;;;;;;3.41;78.36;99046.09;1630982;87;20423;-86
2021/12/13 12:17:28;;;;;;;;;;;;;;;3.40;78.34;99043.10;1627635;87;25199;-86
2021/12/13 12:20:00;;;;;;;;;;;;;;;3.40;78.32;99047.43;1626064;87;22014;-86
2021/12/13 12:22:40;;;;;;;;;;;;;;;3.42;78.31;99043.91;1596768;87;26098;-86
2021/12/13 12:25:07;;;;;;;;;;;;;;;3.43;78.28;99038.30;1624857;87;24594;-86
2021/12/13 12:27:37;;;;;;;;;;;;;;;3.43;78.27;99037.85;1622657;87;20236;-87
2021/12/13 12:30:05;;;;;;;;;;;;;;;3.50;78.28;99033.30;1620179;86;25108;-86
2021/12/13 12:32:34;;;;;;;;;;;;;;;3.57;78.30;99030.48;1630637;85;22896;-87
2021/12/13 12:35:02;;;;;;;;;;;;;;;3.61;78.28;99035.95;1630064;85;26120;-86
2021/12/13 12:37:34;;;;;;;;;;;;;;;3.62;78.28;99040.23;1626928;86;24609;-87
2021/12/13 12:40:11;;;;;;;;;;;;;;;3.56;78.25;99039.14;1623307;85;20637;-87
2021/12/13 12:42:39;;;;;;;;;;;;;;;3.49;78.23;99040.22;1626013;87;25160;-88
2021/12/13 12:45:07;;;;;;;;;;;;;;;3.41;78.19;99037.48;1629406;86;21986;-88
2021/12/13 12:47:37;;;;;;;;;;;;;;;3.47;78.17;99047.64;1622252;87;26243;-88
2021/12/13 12:50:23;;;;;;;;;;;;;;;3.42;78.13;99044.36;1626482;87;24562;-88
2021/12/13 12:52:51;;;;;;;;;;;;;;;3.38;78.06;99045.73;1619051;86;20258;-88
2021/12/13 12:55:19;;;;;;;;;;;;;;;3.35;78.01;99047.58;1619085;87;25159;-88
2021/12/13 12:57:46;;;;;;;;;;;;;;;3.24;77.95;99050.94;1629267;87;21975;-87
2021/12/13 13:00:12;;;;;;;;;;;;;;;3.19;77.88;99052.38;1626950;87;26006;-87
2021/12/13 13:02:39;;;;;;;;;;;;;;;3.19;77.88;99056.25;1619469;87;26378;-87
2021/12/13 13:05:07;;;;;;;;;;;;;;;3.11;77.86;99054.80;1617109;87;20286;-87
2021/12/13 13:07:35;;;;;;;;;;;;;;;3.08;77.83;99059.61;1616834;87;25651;-88
2021/12/13 13:13:08;;;;;;;;;;;;;;;2.98;77.80;99071.56;1616009;87;26074;-88